Time;durP1;ratioP1;P1;durP2;ratioP2;P2;SDS_P1;SDS_P2;PMS_P1;PMS_P2;Temp;Humidity;BMP_temperature;BMP_pressure;BME280_temperature;BME280_humidity;BME280_pressure;Samples;Min_cycle;Max_cycle;Signal;HPM_P1;HPM_P2
2022/09/21 00:06:24;;;;;;;4.73;1.20;;;;;;;7.21;100.00;98390.34;18406370;32;20420;-62
2022/09/21 00:16:27;;;;;;;2.40;1.20;;;;;;;7.04;100.00;98389.34;18434053;32;20327;-62
2022/09/21 00:26:30;;;;;;;3.20;0.80;;;;;;;6.85;100.00;98386.72;18432425;32;20075;-62
2022/09/21 00:36:33;;;;;;;3.40;0.90;;;;;;;6.67;100.00;98390.25;18433031;32;20053;-62
2022/09/21 00:46:40;;;;;;;2.07;0.90;;;;;;;6.49;100.00;98393.78;18432791;32;20143;-62
2022/09/21 00:56:44;;;;;;;2.00;0.87;;;;;;;6.41;100.00;98397.62;18432625;32;20069;-62
2022/09/21 01:06:47;;;;;;;2.13;0.97;;;;;;;6.28;100.00;98390.50;18489524;32;20087;-62
2022/09/21 01:17:24;;;;;;;2.23;0.90;;;;;;;6.15;100.00;98385.28;18468421;32;20098;-62
2022/09/21 01:27:37;;;;;;;3.30;0.90;;;;;;;6.03;100.00;98379.00;18281243;32;20402;-61
2022/09/21 01:38:11;;;;;;;1.07;0.80;;;;;;;5.97;100.00;98386.06;18280692;32;20073;-62
2022/09/21 01:48:16;;;;;;;1.00;0.70;;;;;;;5.93;100.00;98395.59;18043452;32;20110;-62
2022/09/21 01:58:40;;;;;;;1.47;0.87;;;;;;;5.69;100.00;98400.00;18204108;32;20072;-62
2022/09/21 02:08:44;;;;;;;1.37;0.77;;;;;;;5.74;100.00;98392.06;18104918;32;20456;-62
2022/09/21 02:19:10;;;;;;;1.63;0.90;;;;;;;5.66;100.00;98387.81;18179347;32;20077;-62
2022/09/21 02:29:25;;;;;;;1.67;0.90;;;;;;;5.65;100.00;98388.88;18367499;32;20085;-62
2022/09/21 02:39:58;;;;;;;1.57;0.90;;;;;;;5.49;100.00;98390.22;18483910;32;20071;-62
2022/09/21 02:50:11;;;;;;;2.03;0.90;;;;;;;5.46;100.00;98395.22;18238811;32;20546;-62
2022/09/21 03:00:15;;;;;;;1.30;0.80;;;;;;;5.38;100.00;98394.44;18175637;32;20080;-62
2022/09/21 03:10:18;;;;;;;2.33;0.90;;;;;;;5.33;100.00;98391.63;18175349;32;20113;-62
2022/09/21 03:20:20;;;;;;;1.40;0.83;;;;;;;5.31;100.00;98393.66;18216214;32;20081;-62
2022/09/21 03:30:24;;;;;;;2.80;0.90;;;;;;;5.17;100.00;98386.78;18383596;32;20061;-62
2022/09/21 03:40:27;;;;;;;2.50;1.43;;;;;;;5.13;100.00;98381.03;18500528;32;20075;-62
2022/09/21 03:50:29;;;;;;;1.43;0.80;;;;;;;5.13;100.00;98386.38;18362108;32;20057;-62
2022/09/21 04:00:32;;;;;;;1.80;1.00;;;;;;;5.03;100.00;98386.88;18361495;32;20072;-62
2022/09/21 04:10:35;;;;;;;2.67;1.20;;;;;;;5.00;100.00;98400.72;18361034;32;20446;-62
2022/09/21 04:20:38;;;;;;;2.97;1.47;;;;;;;5.05;100.00;98390.13;18469763;32;20081;-62
2022/09/21 04:30:40;;;;;;;2.37;1.40;;;;;;;5.07;100.00;98398.78;18471095;32;20061;-62
2022/09/21 04:40:43;;;;;;;1.93;1.37;;;;;;;5.08;100.00;98404.97;18490876;32;20060;-62
2022/09/21 04:50:49;;;;;;;2.70;1.50;;;;;;;5.08;100.00;98400.44;18469731;32;20064;-62
2022/09/21 05:00:53;;;;;;;3.13;1.53;;;;;;;5.23;100.00;98410.03;18495982;32;20094;-62
2022/09/21 05:10:56;;;;;;;1.70;1.03;;;;;;;5.47;100.00;98404.91;18495809;32;20056;-62
2022/09/21 05:21:00;;;;;;;3.27;1.83;;;;;;;5.67;100.00;98404.72;18495494;32;20065;-63
2022/09/21 05:31:08;;;;;;;4.10;1.73;;;;;;;5.89;100.00;98411.34;18488473;32;20053;-62
2022/09/21 05:41:19;;;;;;;2.93;1.73;;;;;;;6.16;100.00;98416.47;18482017;32;20096;-62
2022/09/21 05:51:41;;;;;;;4.10;2.50;;;;;;;6.48;100.00;98427.06;18494721;32;20045;-62
2022/09/21 06:02:07;;;;;;;4.27;2.90;;;;;;;6.85;100.00;98434.28;18489339;32;20045;-62
2022/09/21 06:12:10;;;;;;;8.20;5.10;;;;;;;7.10;100.00;98444.91;18506394;32;20409;-62
2022/09/21 06:22:13;;;;;;;12.37;7.60;;;;;;;7.34;100.00;98447.69;18492101;32;20061;-62
2022/09/21 06:32:15;;;;;;;12.83;8.37;;;;;;;7.52;100.00;98449.47;18465555;32;20391;-62
2022/09/21 06:42:18;;;;;;;16.80;9.53;;;;;;;7.74;100.00;98444.34;18490412;32;20058;-62
2022/09/21 06:52:23;;;;;;;14.00;9.57;;;;;;;7.95;100.00;98451.88;18365713;32;20088;-62
2022/09/21 07:02:27;;;;;;;14.13;9.33;;;;;;;8.25;100.00;98453.63;18352340;32;20111;-62
2022/09/21 07:12:35;;;;;;;18.70;10.23;;;;;;;8.50;100.00;98462.50;18363795;32;20115;-62
2022/09/21 07:22:44;;;;;;;16.50;9.67;;;;;;;8.61;100.00;98456.31;18351852;32;20061;-61
2022/09/21 07:32:53;;;;;;;18.33;9.43;;;;;;;8.53;100.00;98459.38;18423170;32;20060;-61
2022/09/21 07:43:07;;;;;;;12.67;8.20;;;;;;;8.87;100.00;98464.91;18477474;32;20385;-62
2022/09/21 07:53:12;;;;;;;18.27;10.13;;;;;;;9.26;100.00;98468.66;18487201;32;20057;-62
2022/09/21 08:03:18;;;;;;;18.13;10.37;;;;;;;9.17;100.00;98464.69;18472225;32;20486;-62
2022/09/21 08:13:22;;;;;;;14.83;7.73;;;;;;;9.32;100.00;98459.56;18492220;32;20053;-62
2022/09/21 08:23:28;;;;;;;17.17;9.20;;;;;;;9.50;100.00;98469.31;18498213;32;20090;-62
2022/09/21 08:33:37;;;;;;;17.77;10.07;;;;;;;9.97;100.00;98462.00;18497673;32;20463;-62
2022/09/21 08:43:47;;;;;;;16.57;9.10;;;;;;;10.34;98.07;98466.84;18496204;32;20365;-62
2022/09/21 08:54:26;;;;;;;16.00;9.40;;;;;;;11.31;94.01;98466.44;18496871;32;20056;-62
2022/09/21 09:04:58;;;;;;;15.87;8.73;;;;;;;10.80;88.28;98461.28;18469279;32;20057;-62
2022/09/21 09:15:15;;;;;;;14.03;9.13;;;;;;;10.76;88.39;98457.44;18231050;32;20082;-62
2022/09/21 09:25:25;;;;;;;11.20;7.37;;;;;;;11.01;88.59;98456.91;18230881;32;20063;-62
2022/09/21 09:35:36;;;;;;;11.77;8.00;;;;;;;11.43;88.19;98450.88;18113425;32;20189;-62
2022/09/21 09:46:23;;;;;;;14.60;7.73;;;;;;;11.60;87.44;98441.81;18167275;32;20074;-62
2022/09/21 09:56:26;;;;;;;11.80;7.33;;;;;;;11.46;81.26;98420.56;18179709;32;20079;-62
2022/09/21 10:06:32;;;;;;;8.33;4.67;;;;;;;12.01;80.36;98413.13;18222449;32;20371;-62
2022/09/21 10:16:40;;;;;;;7.20;4.20;;;;;;;12.18;75.62;98404.03;18355364;32;20143;-62
2022/09/21 10:27:01;;;;;;;7.03;3.70;;;;;;;12.45;74.49;98397.66;18438684;32;20128;-62
2022/09/21 10:37:29;;;;;;;7.12;3.12;;;;;;;12.45;70.75;98379.50;18505023;32;20129;-62
2022/09/21 10:47:43;;;;;;;5.85;3.40;;;;;;;12.75;73.63;98367.12;18503242;32;20121;-62
2022/09/21 10:57:49;;;;;;;5.43;2.92;;;;;;;12.97;73.74;98358.75;18477318;32;20409;-62
2022/09/21 11:08:07;;;;;;;4.85;2.40;;;;;;;13.30;71.77;98348.47;18289278;32;20086;-62
2022/09/21 11:18:49;;;;;;;4.22;2.65;;;;;;;13.62;67.37;98338.44;18300847;32;20081;-62
2022/09/21 11:29:12;;;;;;;5.30;2.50;;;;;;;14.27;67.45;98338.56;18287843;32;20375;-63
2022/09/21 11:39:57;;;;;;;6.00;2.72;;;;;;;14.54;62.42;98335.47;18354477;32;20104;-62
2022/09/21 11:50:17;;;;;;;5.03;2.33;;;;;;;15.08;66.01;98319.38;18110576;32;20138;-63
2022/09/21 12:00:52;;;;;;;5.57;2.08;;;;;;;15.56;66.10;98305.88;18098200;32;20440;-63
2022/09/21 12:11:38;;;;;;;4.78;2.28;;;;;;;15.88;60.47;98290.91;18110019;32;20086;-63
2022/09/21 12:21:48;;;;;;;3.15;1.70;;;;;;;16.48;58.72;98281.44;18069775;32;20066;-63
2022/09/21 12:32:21;;;;;;;7.55;1.87;;;;;;;16.80;55.60;98276.34;18220735;32;20100;-63
2022/09/21 12:42:47;;;;;;;3.00;1.42;;;;;;;17.14;55.27;98267.91;18207129;32;20062;-62
2022/09/21 12:53:10;;;;;;;2.80;1.27;;;;;;;17.35;53.36;98262.09;18303324;32;20442;-60
2022/09/21 13:04:00;;;;;;;2.97;1.33;;;;;;;17.63;56.29;98262.97;18474841;32;20052;-60
2022/09/21 13:14:05;;;;;;;3.53;1.77;;;;;;;18.25;56.25;98248.94;18481763;32;20124;-60
2022/09/21 13:24:29;;;;;;;2.45;1.23;;;;;;;18.20;47.95;98240.00;18481277;32;20392;-60
2022/09/21 13:34:38;;;;;;;1.33;0.65;;;;;;;17.86;52.96;98224.81;18488885;32;20057;-60
2022/09/21 13:44:45;;;;;;;2.58;0.90;;;;;;;17.97;55.24;98222.72;18495197;32;20063;-59
2022/09/21 13:54:53;;;;;;;3.47;1.42;;;;;;;17.76;53.70;98221.16;18480289;32;20091;-60
2022/09/21 14:05:21;;;;;;;2.70;1.08;;;;;;;18.21;56.53;98215.06;18356393;32;20135;-60
2022/09/21 14:15:34;;;;;;;2.37;1.23;;;;;;;18.92;49.67;98203.59;18280561;32;20504;-60
2022/09/21 14:25:55;;;;;;;1.98;1.00;;;;;;;18.81;52.44;98204.94;18304217;32;20089;-60
2022/09/21 14:36:02;;;;;;;2.37;0.75;;;;;;;18.32;45.43;98207.41;18303398;32;20074;-60
2022/09/21 14:46:39;;;;;;;2.00;0.95;;;;;;;17.92;56.35;98197.06;18338575;32;20113;-60
2022/09/21 14:56:59;;;;;;;1.92;0.90;;;;;;;17.95;58.54;98195.63;18365696;32;20148;-60
2022/09/21 15:17:30;;;;;;;1.95;0.70;;;;;;;17.81;57.74;98201.09;18364893;32;20459;-60
2022/09/21 15:27:34;;;;;;;1.20;0.50;;;;;;;17.40;63.28;98201.87;18379184;32;20069;-60
2022/09/21 15:37:38;;;;;;;1.37;0.68;;;;;;;17.00;65.46;98199.56;18436764;32;20097;-60
2022/09/21 15:47:43;;;;;;;1.08;0.45;;;;;;;16.51;65.75;98198.12;18434943;32;20053;-60
2022/09/21 15:57:57;;;;;;;1.37;0.70;;;;;;;15.93;68.01;98191.84;18441352;32;20067;-60
2022/09/21 16:08:06;;;;;;;0.85;0.50;;;;;;;15.38;69.85;98194.91;18361365;32;20558;-60
2022/09/21 16:18:31;;;;;;;2.35;0.60;;;;;;;14.87;72.42;98194.28;18348352;32;20078;-60
2022/09/21 16:28:36;;;;;;;;;;;;;;;14.26;74.12;98203.66;18360838;32;20099;-60
2022/09/21 16:38:39;;;;;;;0.68;0.37;;;;;;;13.73;78.51;98206.88;18375012;32;20001;-60
2022/09/21 16:48:43;;;;;;;1.45;0.55;;;;;;;13.40;79.38;98217.31;18359089;32;20578;-60
2022/09/21 16:58:46;;;;;;;1.00;0.60;;;;;;;13.08;78.07;98223.84;18358469;32;20119;-60
2022/09/21 17:08:48;;;;;;;2.92;0.57;;;;;;;12.70;79.49;98217.87;18345490;32;20099;-62
2022/09/21 17:18:51;;;;;;;1.58;0.70;;;;;;;12.38;82.60;98221.62;18453996;32;20079;-62
2022/09/21 17:28:54;;;;;;;1.00;0.50;;;;;;;12.03;82.87;98221.25;18495839;32;20350;-62
2022/09/21 17:38:57;;;;;;;4.67;0.40;;;;;;;11.64;83.17;98218.09;18495389;32;20053;-62
2022/09/21 17:49:00;;;;;;;2.80;0.60;;;;;;;11.29;84.00;98222.22;18356684;32;20244;-61
2022/09/21 17:59:04;;;;;;;1.50;0.70;;;;;;;10.98;84.96;98224.72;18367484;32;20132;-62
2022/09/21 18:09:08;;;;;;;1.33;0.93;;;;;;;10.66;85.39;98239.03;18368769;32;20449;-62
2022/09/21 18:19:41;;;;;;;1.83;0.98;;;;;;;10.37;86.44;98236.59;18389184;32;20049;-62
2022/09/21 18:29:44;;;;;;;1.37;1.00;;;;;;;10.13;87.50;98244.16;18491093;32;20045;-62
2022/09/21 18:39:52;;;;;;;1.30;0.80;;;;;;;9.90;88.72;98248.75;18491202;32;20049;-62
2022/09/21 18:50:02;;;;;;;2.20;0.97;;;;;;;9.69;89.59;98253.06;18504586;32;20121;-62
2022/09/21 19:00:05;;;;;;;1.57;0.60;;;;;;;9.49;90.74;98261.72;18477012;32;20365;-62
2022/09/21 19:10:21;;;;;;;2.70;0.70;;;;;;;9.32;91.49;98267.12;18487898;32;20119;-62
2022/09/21 19:20:40;;;;;;;1.30;0.70;;;;;;;9.15;92.68;98270.66;18489536;32;20076;-62
2022/09/21 19:30:46;;;;;;;2.03;0.60;;;;;;;9.05;93.98;98273.19;18501933;32;20068;-62
2022/09/21 19:40:54;;;;;;;2.13;0.70;;;;;;;9.06;95.93;98280.22;18501620;32;20508;-62
2022/09/21 19:50:57;;;;;;;1.30;0.70;;;;;;;9.15;97.24;98273.38;18299439;32;20069;-62
2022/09/21 20:01:00;;;;;;;3.10;1.30;;;;;;;9.10;97.29;98284.06;18172394;32;20533;-62
2022/09/21 20:11:12;;;;;;;2.20;1.07;;;;;;;9.03;97.82;98286.13;18172160;32;20120;-62
2022/09/21 20:21:18;;;;;;;1.67;1.10;;;;;;;8.93;98.74;98294.03;18323774;32;20460;-62
2022/09/21 20:31:23;;;;;;;1.23;0.70;;;;;;;8.80;98.75;98290.56;18272874;32;20136;-63
2022/09/21 20:41:25;;;;;;;;;;;;;;;8.62;97.71;98285.41;18296749;32;20070;-62
2022/09/21 20:51:28;;;;;;;2.37;0.87;;;;;;;8.47;98.01;98289.44;18296197;32;19945;-62
2022/09/21 21:01:30;;;;;;;1.63;1.10;;;;;;;8.32;97.80;98289.94;18442080;32;20493;-62
2022/09/21 21:11:33;;;;;;;4.70;0.90;;;;;;;8.14;97.82;98290.94;18496055;32;20383;-62
2022/09/21 21:21:35;;;;;;;2.53;0.97;;;;;;;8.00;98.18;98294.94;18294346;32;20080;-62
2022/09/21 21:31:38;;;;;;;1.87;0.80;;;;;;;7.85;98.13;98291.94;18293577;32;20070;-62
2022/09/21 21:41:42;;;;;;;0.93;0.60;;;;;;;7.70;98.28;98295.97;18293678;32;20082;-62
2022/09/21 21:51:45;;;;;;;2.27;0.60;;;;;;;7.59;98.87;98299.47;18453574;32;20072;-62
2022/09/21 22:01:47;;;;;;;1.40;0.50;;;;;;;7.43;98.47;98292.94;18494319;32;20080;-62
2022/09/21 22:11:49;;;;;;;0.70;0.53;;;;;;;7.29;98.22;98295.84;18494185;32;20053;-62
2022/09/21 22:21:52;;;;;;;0.90;0.50;;;;;;;7.13;98.32;98275.81;18494134;32;20056;-62
2022/09/21 22:31:55;;;;;;;0.97;0.50;;;;;;;7.02;98.29;98290.09;18493841;32;20062;-62
2022/09/21 22:41:58;;;;;;;2.33;0.63;;;;;;;6.99;98.99;98281.66;18485946;32;20083;-62
2022/09/21 22:52:01;;;;;;;2.23;1.30;;;;;;;6.86;98.91;98264.69;18504214;32;20061;-62
2022/09/21 23:02:07;;;;;;;1.90;0.90;;;;;;;6.75;98.68;98266.28;18503555;32;20124;-62
2022/09/21 23:12:09;;;;;;;2.23;1.10;;;;;;;6.64;98.99;98274.34;18503670;32;20056;-62
2022/09/21 23:22:11;;;;;;;3.10;1.83;;;;;;;6.49;98.77;98270.19;18488663;32;20464;-62
2022/09/21 23:32:14;;;;;;;3.03;1.70;;;;;;;6.40;99.60;98272.41;18496901;32;20057;-62
2022/09/21 23:42:16;;;;;;;2.73;1.13;;;;;;;6.31;100.00;98276.44;18500610;32;20075;-62
2022/09/21 23:52:18;;;;;;;3.53;1.10;;;;;;;6.28;100.00;98274.22;18500167;32;20104;-62
